Time;durP1;ratioP1;P1;durP2;ratioP2;P2;SDS_P1;SDS_P2;PMS_P1;PMS_P2;Temp;Humidity;BMP_temperature;BMP_pressure;BME280_temperature;BME280_humidity;BME280_pressure;Samples;Min_cycle;Max_cycle;Signal;HPM_P1;HPM_P2
2024/02/03 00:00:51;;;;;;;31.27;21.10;;;9.70;99.90;;;;;;4929093;28;20063;-83
2024/02/03 00:03:17;;;;;;;26.70;18.25;;;9.70;99.90;;;;;;4948790;28;20046;-83
2024/02/03 00:05:45;;;;;;;24.15;17.75;;;9.70;99.90;;;;;;4930890;28;20478;-83
2024/02/03 00:08:11;;;;;;;25.30;17.83;;;9.70;99.90;;;;;;4945327;28;20035;-84
2024/02/03 00:10:38;;;;;;;23.30;17.02;;;9.70;99.90;;;;;;4960480;28;20503;-81
2024/02/03 00:13:04;;;;;;;22.05;15.85;;;9.70;99.90;;;;;;4947152;28;20116;-83
2024/02/03 00:15:31;;;;;;;25.45;16.38;;;9.70;99.90;;;;;;4931257;28;20047;-82
2024/02/03 00:17:57;;;;;;;28.33;19.48;;;9.70;99.90;;;;;;4933552;28;20051;-83
2024/02/03 00:20:25;;;;;;;28.65;17.90;;;9.70;99.90;;;;;;4964405;28;20490;-83
2024/02/03 00:22:51;;;;;;;26.40;17.25;;;9.70;99.90;;;;;;4962328;28;20055;-82
2024/02/03 00:25:21;;;;;;;22.35;16.42;;;9.70;99.90;;;;;;4963730;28;20039;-82
2024/02/03 00:27:48;;;;;;;27.00;19.92;;;9.70;99.90;;;;;;4948045;28;20042;-82
2024/02/03 00:30:14;;;;;;;25.65;18.45;;;9.70;99.90;;;;;;4966023;28;20496;-83
2024/02/03 00:32:41;;;;;;;21.73;17.27;;;9.70;99.90;;;;;;4950186;28;20047;-82
2024/02/03 00:35:08;;;;;;;26.02;19.25;;;9.70;99.90;;;;;;4948714;28;20023;-82
2024/02/03 00:37:34;;;;;;;23.83;17.77;;;9.70;99.90;;;;;;4963265;28;20035;-82
2024/02/03 00:40:00;;;;;;;25.98;19.05;;;9.70;99.90;;;;;;4965246;28;20064;-82
2024/02/03 00:42:27;;;;;;;29.17;20.58;;;9.70;99.90;;;;;;4932321;28;20050;-82
2024/02/03 00:44:53;;;;;;;24.73;19.02;;;9.70;99.90;;;;;;4981634;28;20050;-82
2024/02/03 00:47:20;;;;;;;29.08;20.55;;;9.70;99.90;;;;;;4949101;28;21016;-82
2024/02/03 00:49:46;;;;;;;30.90;21.15;;;9.70;99.90;;;;;;4934499;28;20035;-82
2024/02/03 00:52:12;;;;;;;28.67;20.27;;;9.80;99.90;;;;;;4963603;28;20031;-82
2024/02/03 00:54:39;;;;;;;31.02;20.95;;;9.70;99.90;;;;;;4980445;28;20073;-81
2024/02/03 00:57:07;;;;;;;26.65;19.92;;;9.80;99.90;;;;;;4963042;28;20509;-82
2024/02/03 00:59:34;;;;;;;28.00;18.90;;;9.70;99.90;;;;;;4948765;28;20042;-82
2024/02/03 01:02:00;;;;;;;27.02;18.85;;;9.70;99.90;;;;;;4949386;28;20042;-81
2024/02/03 01:04:27;;;;;;;31.75;21.38;;;9.80;99.90;;;;;;4950403;28;20420;-82
2024/02/03 01:06:55;;;;;;;28.80;20.92;;;9.80;99.90;;;;;;4949805;28;20835;-82
2024/02/03 01:09:22;;;;;;;26.13;19.48;;;9.80;99.90;;;;;;4948419;28;20439;-82
2024/02/03 01:11:48;;;;;;;30.35;21.90;;;9.80;99.90;;;;;;4964954;28;20479;-82
2024/02/03 01:14:15;;;;;;;27.50;20.85;;;9.80;99.90;;;;;;4948899;28;20533;-81
2024/02/03 01:16:43;;;;;;;26.05;18.90;;;9.80;99.90;;;;;;4935761;28;20046;-82
2024/02/03 01:19:10;;;;;;;22.90;17.27;;;9.80;99.90;;;;;;4932266;28;20023;-82
2024/02/03 01:21:36;;;;;;;25.80;17.13;;;9.80;99.90;;;;;;4963737;28;20137;-82
2024/02/03 01:24:03;;;;;;;25.67;18.88;;;9.80;99.90;;;;;;4965064;28;20754;-82
2024/02/03 01:26:30;;;;;;;27.60;19.35;;;9.80;99.90;;;;;;4949576;28;20407;-82
2024/02/03 01:28:56;;;;;;;22.17;17.25;;;9.80;99.90;;;;;;4964726;28;20054;-81
2024/02/03 01:31:23;;;;;;;22.83;17.90;;;9.80;99.90;;;;;;4949560;28;20039;-82
2024/02/03 01:33:49;;;;;;;29.63;19.25;;;9.80;99.90;;;;;;4964083;28;20078;-82
2024/02/03 01:36:16;;;;;;;22.90;18.05;;;9.70;99.90;;;;;;4933080;28;20279;-81
2024/02/03 01:38:48;;;;;;;29.15;20.70;;;9.80;99.90;;;;;;4933296;28;20047;-81
2024/02/03 01:41:15;;;;;;;26.75;20.00;;;9.80;99.90;;;;;;4963081;28;20039;-81
2024/02/03 01:43:42;;;;;;;19.85;16.13;;;9.70;99.90;;;;;;4964453;28;20907;-82
2024/02/03 01:46:09;;;;;;;21.25;16.17;;;9.70;99.90;;;;;;4964829;28;20027;-82
2024/02/03 01:48:36;;;;;;;22.52;17.42;;;9.80;99.90;;;;;;4964817;28;20514;-81
2024/02/03 01:51:03;;;;;;;22.02;15.05;;;9.80;99.90;;;;;;4967463;28;20046;-82
2024/02/03 01:53:30;;;;;;;27.40;18.15;;;9.80;99.90;;;;;;4948613;28;20031;-82
2024/02/03 01:55:58;;;;;;;24.90;16.67;;;9.80;99.90;;;;;;4950639;28;20027;-82
2024/02/03 01:58:25;;;;;;;24.65;16.83;;;9.80;99.90;;;;;;4964214;28;20027;-82
2024/02/03 02:00:51;;;;;;;18.67;13.68;;;9.80;99.90;;;;;;4963573;28;20515;-82
2024/02/03 02:03:17;;;;;;;19.95;14.00;;;9.80;99.90;;;;;;4965648;28;20524;-81
2024/02/03 02:05:47;;;;;;;18.10;14.13;;;9.80;99.90;;;;;;4949952;28;20031;-82
2024/02/03 02:08:14;;;;;;;18.02;13.50;;;9.80;99.90;;;;;;4933903;28;20058;-81
2024/02/03 02:10:40;;;;;;;17.63;13.35;;;9.80;99.90;;;;;;4966030;28;20027;-79
2024/02/03 02:13:07;;;;;;;17.17;12.73;;;9.80;99.90;;;;;;4964900;28;20027;-79
2024/02/03 02:15:33;;;;;;;21.38;13.75;;;9.80;99.90;;;;;;4950247;28;20054;-80
2024/02/03 02:18:00;;;;;;;18.70;13.43;;;9.80;99.90;;;;;;4964537;28;20505;-81
2024/02/03 02:20:28;;;;;;;18.70;13.23;;;9.80;99.90;;;;;;4964971;28;20104;-80
2024/02/03 02:22:55;;;;;;;16.02;11.98;;;9.80;99.90;;;;;;4949586;28;20047;-79
2024/02/03 02:25:21;;;;;;;20.23;12.73;;;9.80;99.90;;;;;;4949938;28;20043;-80
2024/02/03 02:27:48;;;;;;;17.48;11.90;;;9.80;99.90;;;;;;4965205;28;20043;-80
2024/02/03 02:30:15;;;;;;;21.13;13.07;;;9.80;99.90;;;;;;4981506;28;20038;-80
2024/02/03 02:32:42;;;;;;;19.63;11.20;;;9.80;99.90;;;;;;4949523;28;20046;-79
2024/02/03 02:35:08;;;;;;;18.77;13.00;;;9.80;99.90;;;;;;4949050;28;20046;-80
2024/02/03 02:37:34;;;;;;;15.57;11.02;;;9.80;99.90;;;;;;4949140;28;20050;-80
2024/02/03 02:40:01;;;;;;;14.35;10.38;;;9.80;99.90;;;;;;4933649;28;20529;-80
2024/02/03 02:42:27;;;;;;;14.80;10.50;;;9.80;99.90;;;;;;4948901;28;20027;-81
2024/02/03 02:44:54;;;;;;;13.82;9.82;;;9.80;99.90;;;;;;4963764;28;20466;-80
2024/02/03 02:47:20;;;;;;;18.23;11.90;;;9.80;99.90;;;;;;4965091;28;20043;-81
2024/02/03 02:49:47;;;;;;;15.38;9.52;;;9.70;99.90;;;;;;4965433;28;20031;-81
2024/02/03 02:52:13;;;;;;;14.23;9.85;;;9.70;99.90;;;;;;4964411;28;20042;-81
2024/02/03 02:54:40;;;;;;;15.13;10.70;;;9.70;99.90;;;;;;4949373;28;20027;-82
2024/02/03 02:57:06;;;;;;;15.60;11.20;;;9.80;99.90;;;;;;4964108;28;20043;-81
2024/02/03 02:59:33;;;;;;;15.35;9.57;;;9.70;99.90;;;;;;4929827;28;20034;-81
2024/02/03 03:01:59;;;;;;;15.63;8.88;;;9.70;99.90;;;;;;4934285;28;20039;-81
2024/02/03 03:04:25;;;;;;;15.10;9.27;;;9.80;99.90;;;;;;4949687;28;20059;-81
2024/02/03 03:06:52;;;;;;;14.10;9.63;;;9.70;99.90;;;;;;4964566;28;20031;-82
2024/02/03 03:09:18;;;;;;;17.10;10.95;;;9.70;99.90;;;;;;4936241;28;20051;-81
2024/02/03 03:11:44;;;;;;;17.40;10.13;;;9.70;99.90;;;;;;4963491;28;20042;-81
2024/02/03 03:14:11;;;;;;;15.13;9.75;;;9.70;99.90;;;;;;4964021;28;20045;-80
2024/02/03 03:16:38;;;;;;;13.95;10.25;;;9.70;99.90;;;;;;4946587;28;20024;-82
2024/02/03 03:19:04;;;;;;;12.93;9.18;;;9.70;99.90;;;;;;4963831;28;20031;-82
2024/02/03 03:21:30;;;;;;;16.13;10.48;;;9.70;99.90;;;;;;4933733;28;20050;-82
2024/02/03 03:23:57;;;;;;;14.32;10.10;;;9.70;99.90;;;;;;4951114;28;20379;-80
2024/02/03 03:26:23;;;;;;;17.95;11.00;;;9.70;99.90;;;;;;4964740;28;20051;-80
2024/02/03 03:28:49;;;;;;;13.80;9.73;;;9.70;99.90;;;;;;4933069;28;20027;-81
2024/02/03 03:31:16;;;;;;;16.75;10.65;;;9.70;99.90;;;;;;4979418;28;20240;-80
2024/02/03 03:33:42;;;;;;;10.73;8.50;;;9.70;99.90;;;;;;4966225;28;20039;-81
2024/02/03 03:36:10;;;;;;;15.57;9.15;;;9.70;99.90;;;;;;4949810;28;20031;-81
2024/02/03 03:38:42;;;;;;;15.15;9.65;;;9.70;99.90;;;;;;4949723;28;20040;-81
2024/02/03 03:41:09;;;;;;;10.77;8.15;;;9.70;99.90;;;;;;4982461;28;20051;-81
2024/02/03 03:43:36;;;;;;;10.00;7.80;;;9.70;99.90;;;;;;4949806;28;20047;-80
2024/02/03 03:46:06;;;;;;;12.02;10.43;;;9.70;99.90;;;;;;4952270;28;20035;-81
2024/02/03 03:48:32;;;;;;;15.55;9.65;;;9.70;99.90;;;;;;4937185;28;20035;-80
2024/02/03 03:50:59;;;;;;;12.77;9.88;;;9.70;99.90;;;;;;4967239;28;20374;-80
2024/02/03 03:53:25;;;;;;;19.15;13.27;;;9.70;99.90;;;;;;4953174;28;20375;-80
2024/02/03 03:55:52;;;;;;;16.08;11.98;;;9.70;99.90;;;;;;4949772;28;20062;-81
2024/02/03 03:58:18;;;;;;;15.32;12.18;;;9.70;99.90;;;;;;4935513;28;20035;-80
2024/02/03 04:00:44;;;;;;;13.60;11.13;;;9.70;99.90;;;;;;4966800;28;20043;-81
2024/02/03 04:03:10;;;;;;;14.13;10.52;;;9.70;99.90;;;;;;4936587;28;20031;-80
2024/02/03 04:05:37;;;;;;;20.02;12.48;;;9.70;99.90;;;;;;4936198;28;20513;-80
2024/02/03 04:08:05;;;;;;;18.00;11.93;;;9.80;99.90;;;;;;4967584;28;20042;-80
2024/02/03 04:10:31;;;;;;;18.63;11.35;;;9.80;99.90;;;;;;4937500;28;20039;-81
2024/02/03 04:12:58;;;;;;;15.63;11.93;;;9.80;99.90;;;;;;4967699;28;20046;-81
2024/02/03 04:15:24;;;;;;;20.50;13.85;;;9.80;99.90;;;;;;4938366;28;20027;-81
2024/02/03 04:17:50;;;;;;;18.17;12.57;;;9.80;99.90;;;;;;4967994;28;20031;-81
2024/02/03 04:20:17;;;;;;;18.35;11.63;;;9.80;99.90;;;;;;4938893;28;20497;-81
2024/02/03 04:22:43;;;;;;;17.60;12.77;;;9.80;99.90;;;;;;4983216;28;20043;-81
2024/02/03 04:25:10;;;;;;;21.35;13.48;;;9.80;99.90;;;;;;4951861;28;20054;-83
2024/02/03 04:27:36;;;;;;;22.50;14.15;;;9.80;99.90;;;;;;4951950;28;20051;-82
2024/02/03 04:30:03;;;;;;;15.98;12.45;;;9.80;99.90;;;;;;4936369;29;21533;-81
2024/02/03 04:32:30;;;;;;;18.08;12.23;;;9.80;99.90;;;;;;4936773;28;20043;-80
2024/02/03 04:34:57;;;;;;;12.75;9.60;;;9.80;99.90;;;;;;4965156;28;20035;-81
2024/02/03 04:37:23;;;;;;;15.70;10.43;;;9.80;99.90;;;;;;4937909;28;20035;-80
2024/02/03 04:39:49;;;;;;;15.63;11.02;;;9.80;99.90;;;;;;4968413;28;20035;-80
2024/02/03 04:42:16;;;;;;;13.82;11.00;;;9.80;99.90;;;;;;4967952;28;20471;-80
2024/02/03 04:44:42;;;;;;;14.45;9.90;;;9.80;99.90;;;;;;4938236;28;20540;-80
2024/02/03 04:47:08;;;;;;;15.07;9.25;;;9.80;99.90;;;;;;4952768;28;20394;-80
2024/02/03 04:49:35;;;;;;;12.02;9.10;;;9.80;99.90;;;;;;4934447;28;20027;-81
2024/02/03 04:52:02;;;;;;;14.73;9.80;;;9.80;99.90;;;;;;4954692;28;20459;-81
2024/02/03 04:54:28;;;;;;;17.10;10.57;;;9.80;99.90;;;;;;4919910;28;20051;-81
2024/02/03 04:56:54;;;;;;;19.38;8.68;;;9.80;99.90;;;;;;4950067;28;20361;-81
2024/02/03 04:59:21;;;;;;;12.32;8.15;;;9.80;99.90;;;;;;4934323;28;20383;-80
2024/02/03 05:01:47;;;;;;;17.08;10.77;;;9.80;99.90;;;;;;4951316;28;20062;-82
2024/02/03 05:04:13;;;;;;;15.13;8.77;;;9.80;99.90;;;;;;4967527;28;20043;-82
2024/02/03 05:06:39;;;;;;;13.45;8.43;;;9.80;99.90;;;;;;4950649;28;20498;-81
2024/02/03 05:09:08;;;;;;;16.33;7.50;;;9.80;99.90;;;;;;4982080;28;20043;-81
2024/02/03 05:11:35;;;;;;;10.38;7.10;;;9.80;99.90;;;;;;4982148;28;20038;-81
2024/02/03 05:14:01;;;;;;;11.93;7.38;;;9.80;99.90;;;;;;4936292;28;20031;-80
2024/02/03 05:16:27;;;;;;;15.38;7.90;;;9.80;99.90;;;;;;4964967;28;20035;-81
2024/02/03 05:18:54;;;;;;;11.98;7.10;;;9.80;99.90;;;;;;4934812;28;20467;-81
2024/02/03 05:21:20;;;;;;;9.85;6.60;;;9.80;99.90;;;;;;4979906;28;20023;-81
2024/02/03 05:23:47;;;;;;;10.60;6.85;;;9.80;99.90;;;;;;4998144;28;20046;-81
2024/02/03 05:26:13;;;;;;;10.95;6.75;;;9.80;99.90;;;;;;4965161;28;20468;-81
2024/02/03 05:28:39;;;;;;;10.23;6.53;;;9.80;99.90;;;;;;4964574;28;20637;-81
2024/02/03 05:31:06;;;;;;;15.40;7.90;;;9.80;99.90;;;;;;4935218;28;20458;-80
2024/02/03 05:33:32;;;;;;;12.35;6.88;;;9.80;99.90;;;;;;4934543;28;20046;-81
2024/02/03 05:35:58;;;;;;;13.10;7.70;;;9.80;99.90;;;;;;4950290;28;20031;-80
2024/02/03 05:38:25;;;;;;;15.52;7.10;;;9.80;99.90;;;;;;4935325;28;20403;-81
2024/02/03 05:40:51;;;;;;;12.98;6.88;;;9.80;99.90;;;;;;4947878;28;20031;-81
2024/02/03 05:43:18;;;;;;;10.93;7.68;;;9.80;99.90;;;;;;4939100;28;20050;-80
2024/02/03 05:45:44;;;;;;;12.65;7.55;;;9.90;99.90;;;;;;4964904;28;20039;-80
2024/02/03 05:48:11;;;;;;;11.35;6.80;;;9.80;99.90;;;;;;4949283;28;20378;-80
2024/02/03 05:50:38;;;;;;;15.80;8.07;;;9.90;99.90;;;;;;4933724;28;20043;-80
2024/02/03 05:53:04;;;;;;;14.55;6.57;;;9.80;99.90;;;;;;4933704;28;20451;-80
2024/02/03 05:55:30;;;;;;;12.50;7.28;;;9.90;99.90;;;;;;4948280;28;20525;-80
2024/02/03 05:57:57;;;;;;;12.25;6.30;;;9.80;99.90;;;;;;4964951;28;20038;-81
2024/02/03 06:00:23;;;;;;;12.93;6.28;;;9.90;99.90;;;;;;4935413;28;20040;-80
2024/02/03 06:02:50;;;;;;;12.23;6.53;;;9.90;99.90;;;;;;4948624;28;20035;-80
2024/02/03 06:05:17;;;;;;;12.43;6.82;;;9.90;99.90;;;;;;4934862;28;20474;-80
2024/02/03 06:07:43;;;;;;;17.80;9.55;;;9.90;99.90;;;;;;4950521;28;20031;-81
2024/02/03 06:10:09;;;;;;;13.55;7.93;;;9.90;99.90;;;;;;4932108;28;20038;-81
2024/02/03 06:12:36;;;;;;;13.07;6.90;;;9.90;99.90;;;;;;4978957;28;20036;-81
2024/02/03 06:15:03;;;;;;;10.20;6.78;;;9.90;99.90;;;;;;4934441;28;20388;-80
2024/02/03 06:17:29;;;;;;;14.23;7.10;;;9.90;99.90;;;;;;4933871;28;20031;-81
2024/02/03 06:19:56;;;;;;;11.90;6.05;;;9.90;99.90;;;;;;4964608;28;21083;-80
2024/02/03 06:22:22;;;;;;;11.57;7.20;;;9.90;99.90;;;;;;4932317;28;20589;-81
2024/02/03 06:24:48;;;;;;;9.88;5.50;;;9.90;99.90;;;;;;4933869;28;20053;-81
2024/02/03 06:27:15;;;;;;;12.45;7.20;;;9.90;99.90;;;;;;4932218;28;20571;-81
2024/02/03 06:29:41;;;;;;;11.60;7.05;;;9.90;99.90;;;;;;4950434;28;20648;-81
2024/02/03 06:32:08;;;;;;;12.23;5.95;;;9.90;99.90;;;;;;4934472;28;20493;-80
2024/02/03 06:34:34;;;;;;;13.23;7.43;;;9.90;99.90;;;;;;4934962;28;20033;-80
2024/02/03 06:37:00;;;;;;;10.55;5.65;;;9.90;99.90;;;;;;4945604;28;20027;-80
2024/02/03 06:39:27;;;;;;;11.27;6.05;;;9.90;99.90;;;;;;4943854;28;20193;-79
2024/02/03 06:41:53;;;;;;;13.80;6.60;;;9.90;99.90;;;;;;4948508;28;20046;-80
2024/02/03 06:44:20;;;;;;;14.27;6.68;;;9.90;99.90;;;;;;4965736;28;20031;-81
2024/02/03 06:46:46;;;;;;;13.65;5.80;;;9.90;99.90;;;;;;4949859;28;20683;-81
2024/02/03 06:49:12;;;;;;;10.98;5.95;;;9.90;99.90;;;;;;4947848;28;20051;-80
2024/02/03 06:51:39;;;;;;;15.02;8.02;;;10.00;99.90;;;;;;4934064;28;20038;-81
2024/02/03 06:54:05;;;;;;;13.45;6.88;;;9.90;99.90;;;;;;4932936;28;20382;-80
2024/02/03 06:56:31;;;;;;;10.80;5.60;;;10.00;99.90;;;;;;4948519;28;20042;-80
2024/02/03 06:58:58;;;;;;;8.40;5.28;;;9.90;99.90;;;;;;4964920;28;20047;-80
2024/02/03 07:01:24;;;;;;;15.02;6.95;;;9.90;99.90;;;;;;4949594;28;20035;-80
2024/02/03 07:03:50;;;;;;;15.93;7.80;;;9.90;99.90;;;;;;4962102;28;20497;-81
2024/02/03 07:06:17;;;;;;;15.80;7.72;;;9.90;99.90;;;;;;4963773;28;20047;-80
2024/02/03 07:08:43;;;;;;;14.30;7.55;;;10.00;99.90;;;;;;4932691;28;20454;-81
2024/02/03 07:11:11;;;;;;;18.40;8.80;;;10.00;99.90;;;;;;4946367;28;20486;-80
2024/02/03 07:13:38;;;;;;;14.20;7.25;;;10.00;99.90;;;;;;4964858;28;20035;-80
2024/02/03 07:16:06;;;;;;;16.83;8.40;;;10.00;99.90;;;;;;4963200;28;20031;-81
2024/02/03 07:18:33;;;;;;;18.02;9.52;;;10.00;99.90;;;;;;4933302;28;20371;-81
2024/02/03 07:20:59;;;;;;;17.50;8.90;;;10.00;99.90;;;;;;4945084;28;20652;-80
2024/02/03 07:23:26;;;;;;;13.90;8.05;;;10.00;99.90;;;;;;4932515;28;20039;-81
2024/02/03 07:25:52;;;;;;;10.85;6.72;;;10.00;99.90;;;;;;4947300;28;20031;-80
2024/02/03 07:28:18;;;;;;;15.73;8.30;;;10.00;99.90;;;;;;4963551;28;20023;-81
2024/02/03 07:30:45;;;;;;;13.50;8.90;;;10.00;99.90;;;;;;4950516;28;20028;-80
2024/02/03 07:33:12;;;;;;;14.63;8.10;;;10.00;99.90;;;;;;4935337;28;20042;-81
2024/02/03 07:35:38;;;;;;;17.55;8.25;;;10.00;99.90;;;;;;4962493;28;20042;-81
2024/02/03 07:38:08;;;;;;;13.05;9.55;;;10.00;99.90;;;;;;4965204;28;20474;-82
2024/02/03 07:40:34;;;;;;;14.80;9.00;;;10.00;99.90;;;;;;4964395;28;21519;-82
2024/02/03 07:43:01;;;;;;;19.52;10.23;;;10.00;99.90;;;;;;4963444;28;20430;-82
2024/02/03 07:45:27;;;;;;;16.40;9.13;;;10.00;99.90;;;;;;4949587;28;20035;-82
2024/02/03 07:47:53;;;;;;;14.35;7.70;;;10.00;99.90;;;;;;4947703;28;20356;-81
2024/02/03 07:50:20;;;;;;;20.77;11.10;;;10.00;99.90;;;;;;4963491;28;20038;-83
2024/02/03 07:52:46;;;;;;;21.75;13.23;;;10.00;99.90;;;;;;4964053;28;20054;-82
2024/02/03 07:55:12;;;;;;;24.15;12.90;;;10.00;99.90;;;;;;4963008;28;20163;-82
2024/02/03 07:57:39;;;;;;;19.35;11.00;;;10.00;99.90;;;;;;4945595;28;20054;-83
2024/02/03 08:00:06;;;;;;;22.35;12.13;;;10.00;99.90;;;;;;4965939;28;20036;-83
2024/02/03 08:02:32;;;;;;;29.70;15.18;;;10.00;99.90;;;;;;4947690;28;20368;-82
2024/02/03 08:04:59;;;;;;;22.08;12.40;;;10.00;99.90;;;;;;4931999;28;20043;-82
2024/02/03 08:07:25;;;;;;;25.02;13.32;;;10.00;99.90;;;;;;4932482;28;20518;-82
2024/02/03 08:09:52;;;;;;;21.90;13.10;;;10.00;99.90;;;;;;4963542;28;20038;-82
2024/02/03 08:12:18;;;;;;;18.20;12.30;;;10.00;99.90;;;;;;4947083;28;20036;-82
2024/02/03 08:14:45;;;;;;;19.20;12.93;;;10.00;99.90;;;;;;4948508;28;20900;-83
2024/02/03 08:17:11;;;;;;;24.33;14.30;;;10.00;99.90;;;;;;4959412;28;20035;-82
2024/02/03 08:19:39;;;;;;;22.25;14.38;;;10.00;99.90;;;;;;4963852;28;20042;-82
2024/02/03 08:22:05;;;;;;;27.73;16.98;;;10.10;99.90;;;;;;4978678;28;20042;-82
2024/02/03 08:24:32;;;;;;;22.40;15.93;;;10.10;99.90;;;;;;4978741;28;20050;-83
2024/02/03 08:26:58;;;;;;;24.58;14.70;;;10.10;99.90;;;;;;4948541;28;20351;-84
2024/02/03 08:29:25;;;;;;;17.92;13.73;;;10.10;99.90;;;;;;4951949;28;20123;-83
2024/02/03 08:31:51;;;;;;;22.98;15.57;;;10.10;99.90;;;;;;4966653;28;20030;-82
2024/02/03 08:34:17;;;;;;;23.83;15.10;;;10.10;99.90;;;;;;4955838;28;20031;-83
2024/02/03 08:36:44;;;;;;;18.92;13.52;;;10.20;99.90;;;;;;4953563;28;20046;-83
2024/02/03 08:39:10;;;;;;;20.80;14.60;;;10.20;99.90;;;;;;4951903;28;20355;-83
2024/02/03 08:41:36;;;;;;;25.83;15.07;;;10.20;99.90;;;;;;4953027;28;20462;-85
2024/02/03 08:44:03;;;;;;;21.85;14.00;;;10.20;99.90;;;;;;4968220;28;20031;-84
2024/02/03 08:46:29;;;;;;;24.02;15.10;;;10.20;99.90;;;;;;4966433;28;20031;-84
2024/02/03 08:48:56;;;;;;;22.80;13.70;;;10.20;99.90;;;;;;4967820;28;20035;-83
2024/02/03 08:51:22;;;;;;;21.40;14.82;;;10.20;99.90;;;;;;4969183;28;20035;-83
2024/02/03 08:53:48;;;;;;;28.30;16.00;;;10.20;99.90;;;;;;4966481;28;20472;-84
2024/02/03 08:56:15;;;;;;;21.52;13.68;;;10.20;99.90;;;;;;4952094;28;20042;-84
2024/02/03 08:58:41;;;;;;;25.38;14.20;;;10.20;99.90;;;;;;4949124;28;20062;-82
2024/02/03 09:01:08;;;;;;;21.80;14.23;;;10.20;99.90;;;;;;4966906;28;20042;-83
2024/02/03 09:03:35;;;;;;;23.58;14.65;;;10.30;99.90;;;;;;4935276;28;20426;-84
2024/02/03 09:06:01;;;;;;;21.30;11.30;;;10.30;99.90;;;;;;4948065;28;20035;-83
2024/02/03 09:08:28;;;;;;;23.50;12.65;;;10.40;99.90;;;;;;4930627;28;20505;-84
2024/02/03 09:10:56;;;;;;;19.33;11.75;;;10.40;99.90;;;;;;4949196;28;20036;-82
2024/02/03 09:13:22;;;;;;;20.63;12.25;;;10.50;99.90;;;;;;4963049;28;20054;-83
2024/02/03 09:15:48;;;;;;;17.00;10.70;;;10.50;99.90;;;;;;4931294;28;20042;-84
2024/02/03 09:18:15;;;;;;;19.20;11.48;;;10.50;99.90;;;;;;4943855;28;20042;-82
2024/02/03 09:20:41;;;;;;;17.40;9.95;;;10.50;99.90;;;;;;4946688;28;20403;-83
2024/02/03 09:23:08;;;;;;;20.40;10.90;;;10.60;99.90;;;;;;4946442;28;20051;-83
2024/02/03 09:25:34;;;;;;;27.58;14.50;;;10.60;99.90;;;;;;4931056;28;21578;-83
2024/02/03 09:28:01;;;;;;;17.75;10.27;;;10.70;99.90;;;;;;4962593;28;20027;-83
2024/02/03 09:30:27;;;;;;;17.23;9.35;;;10.70;99.90;;;;;;4947607;28;20039;-83
2024/02/03 09:32:53;;;;;;;14.75;9.13;;;10.70;99.90;;;;;;4949507;28;20031;-84
2024/02/03 09:35:20;;;;;;;16.27;9.18;;;10.80;99.90;;;;;;4961948;28;20054;-85
2024/02/03 09:37:46;;;;;;;21.35;9.25;;;10.80;99.90;;;;;;4947268;28;20039;-83
2024/02/03 09:40:20;;;;;;;19.02;9.90;;;10.80;99.90;;;;;;4962123;28;20054;-83
2024/02/03 09:42:51;;;;;;;16.70;8.50;;;10.80;99.90;;;;;;4964273;28;20035;-83
2024/02/03 09:45:20;;;;;;;17.85;8.93;;;10.80;99.90;;;;;;4946764;28;20031;-84
2024/02/03 09:47:47;;;;;;;12.45;6.35;;;10.80;99.90;;;;;;4965555;28;20050;-85
2024/02/03 09:50:14;;;;;;;14.57;7.53;;;10.80;99.90;;;;;;4948857;28;20494;-83
2024/02/03 09:52:42;;;;;;;22.50;9.48;;;10.80;99.90;;;;;;4949967;28;20035;-83
2024/02/03 09:55:08;;;;;;;16.58;8.23;;;10.80;99.90;;;;;;4931643;28;20038;-83
2024/02/03 09:57:34;;;;;;;20.67;9.55;;;10.90;99.90;;;;;;4928172;28;20038;-83
2024/02/03 10:00:01;;;;;;;19.45;9.68;;;10.90;99.90;;;;;;4931781;28;20406;-84
2024/02/03 10:02:31;;;;;;;20.25;9.57;;;10.90;99.90;;;;;;4959035;28;20046;-83
2024/02/03 10:04:58;;;;;;;16.73;9.48;;;10.90;99.90;;;;;;4959422;28;20464;-84
2024/02/03 10:07:25;;;;;;;20.63;11.75;;;10.90;99.90;;;;;;4975758;28;20053;-83
2024/02/03 10:10:04;;;;;;;23.50;9.73;;;11.00;99.90;;;;;;4960613;28;20047;-85
2024/02/03 10:12:30;;;;;;;18.67;9.45;;;11.00;99.90;;;;;;4962514;28;20027;-83
2024/02/03 10:15:00;;;;;;;17.77;10.30;;;11.00;99.90;;;;;;4961766;28;20039;-84
2024/02/03 10:17:27;;;;;;;15.65;10.02;;;11.10;99.90;;;;;;4977339;28;20043;-84
2024/02/03 10:19:53;;;;;;;24.33;11.00;;;11.10;99.90;;;;;;4933430;28;20035;-83
2024/02/03 10:22:20;;;;;;;18.83;10.50;;;11.20;99.90;;;;;;4945356;28;20039;-84
2024/02/03 10:24:46;;;;;;;20.52;9.05;;;11.10;99.90;;;;;;4944491;28;20762;-83
2024/02/03 10:27:12;;;;;;;18.95;9.65;;;11.10;99.90;;;;;;4960781;28;20046;-84
2024/02/03 10:29:39;;;;;;;18.45;10.30;;;11.20;99.90;;;;;;4936983;28;20616;-86
2024/02/03 10:32:06;;;;;;;15.25;10.23;;;11.20;99.90;;;;;;4965127;28;20343;-89
2024/02/03 10:34:32;;;;;;;13.80;8.88;;;11.20;99.90;;;;;;4947536;28;20047;-85
2024/02/03 10:37:00;;;;;;;17.63;8.15;;;11.20;99.90;;;;;;4932624;28;20043;-84
2024/02/03 10:39:26;;;;;;;15.70;7.32;;;11.30;99.90;;;;;;4962928;28;20454;-85
2024/02/03 10:41:54;;;;;;;14.32;8.23;;;11.20;99.90;;;;;;4962452;28;20427;-84
2024/02/03 10:44:23;;;;;;;17.23;9.00;;;11.20;99.90;;;;;;4947923;28;20046;-84
2024/02/03 10:46:59;;;;;;;18.05;9.07;;;11.30;99.90;;;;;;4960496;28;20070;-85
2024/02/03 10:49:32;;;;;;;13.40;7.57;;;11.30;99.90;;;;;;4964260;28;20058;-87
2024/02/03 10:52:05;;;;;;;14.68;7.10;;;11.30;99.90;;;;;;4946571;28;20474;-84
2024/02/03 10:54:32;;;;;;;;;;;11.30;99.90;;;;;;4948113;28;20736;-84
2024/02/03 10:57:03;;;;;;;17.67;8.10;;;11.40;99.90;;;;;;4930522;28;19918;-85
2024/02/03 10:59:29;;;;;;;16.73;9.20;;;11.30;99.90;;;;;;4960806;28;20054;-82
2024/02/03 11:01:55;;;;;;;15.57;7.78;;;11.30;99.90;;;;;;4963109;28;20027;-84
2024/02/03 11:04:22;;;;;;;11.48;5.28;;;11.30;99.90;;;;;;4944743;28;20506;-86
2024/02/03 11:06:48;;;;;;;12.38;5.93;;;11.20;99.90;;;;;;4961273;28;20039;-85
2024/02/03 11:09:23;;;;;;;10.18;6.28;;;11.20;99.90;;;;;;4964038;28;20428;-83
2024/02/03 11:11:53;;;;;;;13.90;7.30;;;11.30;99.90;;;;;;4915704;28;20042;-86
2024/02/03 11:14:23;;;;;;;12.30;7.60;;;11.30;99.90;;;;;;4947791;28;21396;-84
2024/02/03 11:16:54;;;;;;;15.00;8.05;;;11.20;99.90;;;;;;4977481;28;20051;-87
2024/02/03 11:19:29;;;;;;;14.35;7.07;;;11.20;99.90;;;;;;4931399;28;20043;-88
2024/02/03 11:21:57;;;;;;;20.02;9.13;;;11.10;99.90;;;;;;4948691;28;20047;-86
2024/02/03 11:24:24;;;;;;;13.77;6.63;;;11.10;99.90;;;;;;4963553;28;20035;-86
2024/02/03 11:27:07;;;;;;;12.43;7.10;;;11.10;99.90;;;;;;4946889;28;20550;-85
2024/02/03 11:29:35;;;;;;;13.27;8.10;;;11.10;99.90;;;;;;4946071;28;20039;-84
2024/02/03 11:32:04;;;;;;;11.13;6.05;;;11.10;99.90;;;;;;4962992;28;20380;-86
2024/02/03 11:34:32;;;;;;;14.95;8.15;;;11.10;99.90;;;;;;4963395;28;20047;-83
2024/02/03 11:37:02;;;;;;;10.73;6.57;;;11.00;99.90;;;;;;4948083;28;20035;-84
2024/02/03 11:39:30;;;;;;;17.65;7.05;;;11.00;99.90;;;;;;4947178;28;20062;-87
2024/02/03 11:41:58;;;;;;;11.55;6.82;;;11.00;99.90;;;;;;4949013;28;20039;-87
2024/02/03 11:44:34;;;;;;;9.27;6.28;;;11.00;99.90;;;;;;4946257;28;20024;-86
2024/02/03 11:47:00;;;;;;;8.13;5.80;;;11.00;99.90;;;;;;4946051;28;20039;-83
2024/02/03 11:49:27;;;;;;;13.20;6.28;;;11.00;99.90;;;;;;4966331;28;20035;-86
2024/02/03 11:52:03;;;;;;;10.05;5.82;;;10.90;99.90;;;;;;4932209;28;20042;-88
2024/02/03 11:54:29;;;;;;;8.75;5.70;;;10.90;99.90;;;;;;4949467;28;20047;-85
2024/02/03 11:56:56;;;;;;;9.30;5.97;;;10.90;99.90;;;;;;4979485;28;20829;-83
2024/02/03 11:59:29;;;;;;;9.52;5.65;;;10.80;99.90;;;;;;4936862;28;20039;-84
2024/02/03 12:01:56;;;;;;;13.43;6.35;;;10.80;99.90;;;;;;4936308;28;20699;-87
2024/02/03 12:04:24;;;;;;;9.25;5.60;;;10.80;99.90;;;;;;4948339;28;20046;-86
2024/02/03 12:06:51;;;;;;;11.65;5.85;;;10.80;99.90;;;;;;4964936;28;20483;-88
2024/02/03 12:09:19;;;;;;;7.10;5.15;;;10.90;99.90;;;;;;4967654;28;20266;-88
2024/02/03 12:11:49;;;;;;;8.48;5.57;;;10.80;99.90;;;;;;4938143;28;20035;-89
2024/02/03 12:14:17;;;;;;;9.27;5.43;;;10.80;99.90;;;;;;4951407;28;20043;-84
2024/02/03 12:16:49;;;;;;;9.85;5.80;;;10.80;99.90;;;;;;4950460;28;20031;-85
2024/02/03 12:19:15;;;;;;;9.18;3.97;;;10.80;99.90;;;;;;4967382;28;20042;-89
2024/02/03 12:21:44;;;;;;;6.20;4.55;;;10.80;99.90;;;;;;4941312;28;20399;-85
2024/02/03 12:24:11;;;;;;;8.55;4.25;;;10.80;99.90;;;;;;4954395;28;20042;-89
2024/02/03 12:26:40;;;;;;;6.78;4.30;;;10.80;99.90;;;;;;4933627;28;20043;-86
2024/02/03 12:29:06;;;;;;;6.22;4.53;;;10.80;99.90;;;;;;4965907;28;20034;-84
2024/02/03 12:31:33;;;;;;;9.48;4.38;;;10.80;99.90;;;;;;4967034;28;22316;-86
2024/02/03 12:33:59;;;;;;;12.13;4.53;;;10.80;99.90;;;;;;4984506;28;20402;-85
2024/02/03 12:36:28;;;;;;;11.82;6.22;;;10.80;99.90;;;;;;4964012;28;20060;-89